createdAt,value
2022-10-17T00:00:35.886Z,13.69
2022-10-17T00:03:02.683Z,13.71
2022-10-17T00:05:29.169Z,13.61
2022-10-17T00:07:55.609Z,13.64
2022-10-17T00:10:23.280Z,13.71
2022-10-17T00:12:51.756Z,13.67
2022-10-17T00:15:20.215Z,13.55
2022-10-17T00:17:46.677Z,13.46
2022-10-17T00:20:13.538Z,13.40
2022-10-17T00:22:40.058Z,13.47
2022-10-17T00:25:06.888Z,13.51
2022-10-17T00:27:37.516Z,13.49
2022-10-17T00:30:04.913Z,13.49
2022-10-17T00:32:31.505Z,13.55
2022-10-17T00:34:58.334Z,13.51
2022-10-17T00:37:25.346Z,13.51
2022-10-17T00:39:51.755Z,13.54
2022-10-17T00:42:18.173Z,13.53
2022-10-17T00:44:47.435Z,13.48
2022-10-17T00:47:19.398Z,13.52
2022-10-17T00:49:46.236Z,13.53
2022-10-17T00:52:17.832Z,13.52
2022-10-17T00:54:45.981Z,13.58
2022-10-17T00:57:12.858Z,13.66
2022-10-17T00:59:41.701Z,13.70
2022-10-17T01:02:14.788Z,13.61
2022-10-17T01:04:47.575Z,13.71
2022-10-17T01:07:14.044Z,13.61
2022-10-17T01:09:42.795Z,13.58
2022-10-17T01:12:18.709Z,13.46
2022-10-17T01:14:58.322Z,13.50
2022-10-17T01:17:43.254Z,13.38
2022-10-17T01:20:43.219Z,13.40
2022-10-17T01:23:37.121Z,13.31
2022-10-17T01:26:22.195Z,13.41
2022-10-17T01:28:57.418Z,13.21
2022-10-17T01:31:32.065Z,13.22
2022-10-17T01:34:22.009Z,13.08
2022-10-17T01:36:51.216Z,13.05
2022-10-17T01:39:48.213Z,13.15
2022-10-17T01:42:40.144Z,13.13
2022-10-17T01:45:26.857Z,13.07
2022-10-17T01:47:55.995Z,13.05
2022-10-17T01:50:48.776Z,13.03
2022-10-17T01:53:22.228Z,12.94
2022-10-17T01:55:51.312Z,13.08
2022-10-17T01:58:27.119Z,13.02
2022-10-17T02:00:56.683Z,13.15
2022-10-17T02:03:25.803Z,13.24
2022-10-17T02:05:52.360Z,13.13
2022-10-17T02:08:30.127Z,13.06
2022-10-17T02:11:05.534Z,13.13
2022-10-17T02:13:50.098Z,13.02
2022-10-17T02:16:25.364Z,13.03
2022-10-17T02:19:03.981Z,13.01
2022-10-17T02:21:51.196Z,13.08
2022-10-17T02:24:36.122Z,13.02
2022-10-17T02:27:08.368Z,12.91
2022-10-17T02:29:43.547Z,13.04
2022-10-17T02:32:18.119Z,13.06
2022-10-17T02:34:49.483Z,13.01
2022-10-17T02:37:22.042Z,13.07
2022-10-17T02:39:50.755Z,13.11
2022-10-17T02:42:18.365Z,13.07
2022-10-17T02:44:46.916Z,12.96
2022-10-17T02:47:25.469Z,13.05
2022-10-17T02:49:53.659Z,12.88
2022-10-17T02:52:50.972Z,13.01
2022-10-17T02:55:21.106Z,12.96
2022-10-17T02:57:57.200Z,12.77
2022-10-17T03:00:26.327Z,12.92
2022-10-17T03:02:54.081Z,12.91
2022-10-17T03:05:22.129Z,12.87
2022-10-17T03:07:48.546Z,12.77
2022-10-17T03:10:15.217Z,12.91
2022-10-17T03:12:41.898Z,12.99
2022-10-17T03:15:09.586Z,12.91
2022-10-17T03:17:36.682Z,12.88
2022-10-17T03:20:04.481Z,12.87
2022-10-17T03:22:31.329Z,12.68
2022-10-17T03:24:58.465Z,12.69
2022-10-17T03:27:25.068Z,12.76
2022-10-17T03:29:51.465Z,12.87
2022-10-17T03:32:17.928Z,13.05
2022-10-17T03:34:44.419Z,12.68
2022-10-17T03:37:10.817Z,12.77
2022-10-17T03:39:37.239Z,12.78
2022-10-17T03:42:03.762Z,12.57
2022-10-17T03:44:30.132Z,12.64
2022-10-17T03:46:57.786Z,12.71
2022-10-17T03:49:24.256Z,12.90
2022-10-17T03:51:50.670Z,12.84
2022-10-17T03:54:17.067Z,12.88
2022-10-17T03:56:43.888Z,12.82
2022-10-17T03:59:14.501Z,12.84
2022-10-17T04:01:41.414Z,12.82
2022-10-17T04:04:08.830Z,12.74
2022-10-17T04:06:35.760Z,12.79
2022-10-17T04:09:02.222Z,12.81
2022-10-17T04:11:28.678Z,12.50
2022-10-17T04:13:56.822Z,12.56
2022-10-17T04:16:23.816Z,12.47
2022-10-17T04:18:55.403Z,12.55
2022-10-17T04:21:23.560Z,12.65
2022-10-17T04:23:57.295Z,12.43
2022-10-17T04:26:23.966Z,12.50
2022-10-17T04:28:50.945Z,12.33
2022-10-17T04:31:18.842Z,12.38
2022-10-17T04:33:49.912Z,12.43
2022-10-17T04:36:19.324Z,12.48
2022-10-17T04:38:46.281Z,12.32
2022-10-17T04:41:15.153Z,12.35
2022-10-17T04:43:44.411Z,12.50
2022-10-17T04:46:15.053Z,12.54
2022-10-17T04:48:42.014Z,12.47
2022-10-17T04:51:12.356Z,12.45
2022-10-17T04:53:40.141Z,12.06
2022-10-17T04:56:15.557Z,12.22
2022-10-17T04:58:43.310Z,12.23
2022-10-17T05:01:14.163Z,12.01
2022-10-17T05:03:40.713Z,11.99
2022-10-17T05:06:09.830Z,12.16
2022-10-17T05:08:36.753Z,12.28
2022-10-17T05:11:04.214Z,12.34
2022-10-17T05:13:30.607Z,12.40
2022-10-17T05:16:01.588Z,12.27
2022-10-17T05:18:28.961Z,12.37
2022-10-17T05:20:55.758Z,12.48
2022-10-17T05:23:22.155Z,12.48
2022-10-17T05:25:53.375Z,12.55
2022-10-17T05:28:19.760Z,12.55
2022-10-17T05:30:46.166Z,12.52
2022-10-17T05:33:12.599Z,12.48
2022-10-17T05:35:38.979Z,12.52
2022-10-17T05:38:05.443Z,12.56
2022-10-17T05:40:31.919Z,12.59
2022-10-17T05:42:58.409Z,12.57
2022-10-17T05:45:24.839Z,12.56
2022-10-17T05:47:51.952Z,12.63
2022-10-17T05:50:21.487Z,12.61
2022-10-17T05:52:47.857Z,12.49
2022-10-17T05:55:14.386Z,12.37
2022-10-17T05:57:40.807Z,12.48
2022-10-17T06:00:07.995Z,12.68
2022-10-17T06:02:34.494Z,12.71
2022-10-17T06:05:01.001Z,12.60
2022-10-17T06:07:27.391Z,12.39
2022-10-17T06:09:53.898Z,12.27
2022-10-17T06:12:20.522Z,12.08
2022-10-17T06:14:46.955Z,12.15
2022-10-17T06:17:15.998Z,12.30
2022-10-17T06:19:44.421Z,11.92
2022-10-17T06:22:10.826Z,11.98
2022-10-17T06:24:37.322Z,12.02
2022-10-17T06:27:06.788Z,12.17
2022-10-17T06:29:35.687Z,11.78
2022-10-17T06:32:02.140Z,11.74
2022-10-17T06:34:28.700Z,12.21
2022-10-17T06:39:33.626Z,12.12
2022-10-17T06:42:01.045Z,12.26
2022-10-17T06:44:31.677Z,12.24
2022-10-17T06:46:59.390Z,12.28
2022-10-17T06:49:25.875Z,12.60
2022-10-17T06:51:52.409Z,12.22
2022-10-17T06:54:18.856Z,12.45
2022-10-17T06:56:45.352Z,12.44
2022-10-17T06:59:12.053Z,12.35
2022-10-17T07:01:40.695Z,12.50
2022-10-17T07:04:09.699Z,12.49
2022-10-17T07:06:36.156Z,12.52
2022-10-17T07:09:03.302Z,12.64
2022-10-17T07:11:29.787Z,12.88
2022-10-17T07:13:56.194Z,12.93
2022-10-17T07:16:22.715Z,12.84
2022-10-17T07:18:50.635Z,13.03
2022-10-17T07:21:17.511Z,13.06
2022-10-17T07:23:44.164Z,12.99
2022-10-17T07:26:13.911Z,13.15
2022-10-17T07:28:42.649Z,13.10
2022-10-17T07:31:11.973Z,13.08
2022-10-17T07:33:38.746Z,13.27
2022-10-17T07:36:05.884Z,13.41
2022-10-17T07:38:32.444Z,13.81
2022-10-17T07:41:03.746Z,13.74
2022-10-17T07:43:30.509Z,14.04
2022-10-17T07:45:57.565Z,14.24
2022-10-17T07:48:24.749Z,14.47
2022-10-17T07:50:51.379Z,14.33
2022-10-17T07:53:18.364Z,14.77
2022-10-17T07:55:46.352Z,15.00
2022-10-17T07:58:14.016Z,14.88
2022-10-17T08:00:40.798Z,15.12
2022-10-17T08:03:07.609Z,15.33
2022-10-17T08:05:34.453Z,15.75
2022-10-17T08:08:00.941Z,15.98
2022-10-17T08:10:29.253Z,15.99
2022-10-17T08:12:57.079Z,16.34
2022-10-17T08:15:27.930Z,16.17
2022-10-17T08:17:58.602Z,16.23
2022-10-17T08:20:25.058Z,16.81
2022-10-17T08:22:55.358Z,16.77
2022-10-17T08:25:22.221Z,17.14
2022-10-17T08:27:48.927Z,17.03
2022-10-17T08:30:15.806Z,17.08
2022-10-17T08:32:42.529Z,17.47
2022-10-17T08:35:09.759Z,17.92
2022-10-17T08:37:36.231Z,18.64
2022-10-17T08:40:03.412Z,18.37
2022-10-17T08:42:50.231Z,18.36
2022-10-17T08:45:51.718Z,18.80
2022-10-17T08:48:20.434Z,19.19
2022-10-17T08:51:08.237Z,19.60
2022-10-17T08:53:50.329Z,19.80
2022-10-17T08:56:44.057Z,19.70
2022-10-17T08:59:14.913Z,20.14
2022-10-17T09:01:50.094Z,20.07
2022-10-17T09:04:41.210Z,20.10
2022-10-17T09:07:27.369Z,19.75
2022-10-17T09:10:08.803Z,20.15
2022-10-17T09:13:07.959Z,20.30
2022-10-17T09:15:45.030Z,20.14
2022-10-17T09:18:21.129Z,20.34
2022-10-17T09:20:54.805Z,20.68
2022-10-17T09:23:23.825Z,20.51
2022-10-17T09:25:55.665Z,21.26
2022-10-17T09:28:43.278Z,20.82
2022-10-17T09:31:20.416Z,21.42
2022-10-17T09:33:54.214Z,20.83
2022-10-17T09:36:25.160Z,20.51
2022-10-17T09:39:04.222Z,20.93
2022-10-17T09:41:45.993Z,21.40
2022-10-17T09:44:18.962Z,21.23
2022-10-17T09:47:26.999Z,21.31
2022-10-17T09:49:53.534Z,21.20
2022-10-17T09:52:21.504Z,21.54
2022-10-17T09:55:01.876Z,21.45
2022-10-17T09:57:28.320Z,21.42
2022-10-17T10:00:06.343Z,22.58
2022-10-17T10:02:36.359Z,22.61
2022-10-17T10:05:20.556Z,22.37
2022-10-17T10:08:05.649Z,22.59
2022-10-17T10:10:33.089Z,21.67
2022-10-17T10:13:14.466Z,21.83
2022-10-17T10:15:43.536Z,22.02
2022-10-17T10:18:25.276Z,21.96
2022-10-17T10:21:22.594Z,21.67
2022-10-17T10:24:10.661Z,21.59
2022-10-17T10:26:42.390Z,20.57
2022-10-17T10:29:31.027Z,21.19
2022-10-17T10:32:25.843Z,21.30
2022-10-17T10:35:16.558Z,21.68
2022-10-17T10:37:46.043Z,21.53
2022-10-17T10:40:22.686Z,22.29
2022-10-17T10:42:51.394Z,22.69
2022-10-17T10:45:48.416Z,22.37
2022-10-17T10:48:36.578Z,22.38
2022-10-17T10:51:14.007Z,22.27
2022-10-17T10:54:01.642Z,22.04
2022-10-17T10:56:37.693Z,22.23
2022-10-17T10:59:06.599Z,22.09
2022-10-17T11:01:54.754Z,22.28
2022-10-17T11:04:29.688Z,22.97
2022-10-17T11:07:03.223Z,22.69
2022-10-17T11:09:47.715Z,22.30
2022-10-17T11:12:38.886Z,22.89
2022-10-17T11:15:27.470Z,22.54
2022-10-17T11:18:04.496Z,23.53
2022-10-17T11:20:53.556Z,23.15
2022-10-17T11:23:34.250Z,22.71
2022-10-17T11:26:05.660Z,23.18
2022-10-17T11:28:32.073Z,23.35
2022-10-17T11:31:07.932Z,22.78
2022-10-17T11:33:37.264Z,22.85
2022-10-17T11:36:06.658Z,23.06
2022-10-17T11:38:51.876Z,22.97
2022-10-17T11:41:29.632Z,22.88
2022-10-17T11:44:38.941Z,23.20
2022-10-17T11:47:28.873Z,22.84
2022-10-17T11:52:59.656Z,23.63
2022-10-17T11:55:29.062Z,24.18
2022-10-17T11:58:01.185Z,24.68
2022-10-17T12:01:05.273Z,24.81
2022-10-17T12:03:34.309Z,25.44
2022-10-17T12:06:12.935Z,24.81
2022-10-17T12:09:01.484Z,24.04
2022-10-17T12:11:42.581Z,24.03
2022-10-17T12:14:47.014Z,25.24
2022-10-17T12:17:39.310Z,24.44
2022-10-17T12:20:21.409Z,23.97
2022-10-17T12:22:53.171Z,23.66
2022-10-17T12:25:26.609Z,23.47
2022-10-17T12:28:03.638Z,22.63
2022-10-17T12:30:30.468Z,23.33
2022-10-17T12:33:11.393Z,23.89
2022-10-17T12:35:39.276Z,25.38
2022-10-17T12:38:20.724Z,24.37
2022-10-17T12:40:49.983Z,24.96
2022-10-17T12:43:16.390Z,26.41
2022-10-17T12:45:46.865Z,27.09
2022-10-17T12:48:33.423Z,25.64
2022-10-17T12:54:12.631Z,24.13
2022-10-17T12:56:49.849Z,23.46
2022-10-17T12:59:29.450Z,22.55
2022-10-17T13:02:01.686Z,22.36
2022-10-17T13:04:29.746Z,22.16
2022-10-17T13:06:58.900Z,21.91
2022-10-17T13:09:32.534Z,21.98
2022-10-17T13:12:02.880Z,21.76
2022-10-17T13:14:31.678Z,22.29
2022-10-17T13:17:06.284Z,21.61
2022-10-17T13:19:45.774Z,21.51
2022-10-17T13:22:25.086Z,21.75
2022-10-17T13:25:04.607Z,21.40
2022-10-17T13:27:33.601Z,21.36
2022-10-17T13:30:02.878Z,21.42
2022-10-17T13:32:38.233Z,21.23
2022-10-17T13:35:17.155Z,21.12
2022-10-17T13:37:48.189Z,21.31
2022-10-17T13:40:49.165Z,21.05
2022-10-17T13:43:16.970Z,21.20
2022-10-17T13:45:49.418Z,21.89
2022-10-17T13:48:25.149Z,21.03
2022-10-17T13:50:56.395Z,21.35
2022-10-17T13:53:30.076Z,21.33
2022-10-17T13:58:53.798Z,21.35
2022-10-17T14:01:21.561Z,21.56
2022-10-17T14:03:51.798Z,21.52
2022-10-17T14:06:28.214Z,21.10
2022-10-17T14:08:57.834Z,20.91
2022-10-17T14:11:33.222Z,21.21
2022-10-17T14:14:01.190Z,21.02
2022-10-17T14:16:36.042Z,21.10
2022-10-17T14:19:02.697Z,21.18
2022-10-17T14:21:40.885Z,20.91
2022-10-17T14:24:24.331Z,21.09
2022-10-17T14:26:53.298Z,21.08
2022-10-17T14:29:31.537Z,20.96
2022-10-17T14:32:12.213Z,20.96
2022-10-17T14:34:40.684Z,20.85
2022-10-17T14:37:28.091Z,21.02
2022-10-17T14:39:57.773Z,21.12
2022-10-17T14:42:24.381Z,21.35
2022-10-17T14:44:52.923Z,20.94
2022-10-17T14:47:42.146Z,21.31
2022-10-17T14:50:12.561Z,21.24
2022-10-17T14:52:39.887Z,21.12
2022-10-17T14:55:22.805Z,20.96
2022-10-17T14:57:49.556Z,21.29
2022-10-17T15:00:18.751Z,20.99
2022-10-17T15:02:46.889Z,21.09
2022-10-17T15:05:14.437Z,21.05
2022-10-17T15:07:41.973Z,21.10
2022-10-17T15:10:35.536Z,20.92
2022-10-17T15:13:27.062Z,20.71
2022-10-17T15:15:51.920Z,20.42
2022-10-17T15:18:19.016Z,20.48
2022-10-17T15:20:45.509Z,20.73
2022-10-17T15:23:11.925Z,20.92
2022-10-17T15:25:39.201Z,20.79
2022-10-17T15:28:05.755Z,20.84
2022-10-17T15:30:35.567Z,20.99
2022-10-17T15:33:01.994Z,20.88
2022-10-17T15:35:29.036Z,20.91
2022-10-17T15:37:55.539Z,21.02
2022-10-17T15:40:25.070Z,20.94
2022-10-17T15:42:51.652Z,20.95
2022-10-17T15:45:21.565Z,21.03
2022-10-17T15:47:55.757Z,20.76
2022-10-17T15:50:22.226Z,20.78
2022-10-17T15:52:52.566Z,20.93
2022-10-17T15:55:19.899Z,20.70
2022-10-17T15:57:48.079Z,20.66
2022-10-17T16:00:22.902Z,20.52
2022-10-17T16:02:50.067Z,20.25
2022-10-17T16:05:23.407Z,20.42
2022-10-17T16:07:50.392Z,20.41
2022-10-17T16:10:17.323Z,20.44
2022-10-17T16:12:44.437Z,20.25
2022-10-17T16:15:14.942Z,20.43
2022-10-17T16:17:41.807Z,20.30
2022-10-17T16:20:08.577Z,20.27
2022-10-17T16:22:38.570Z,20.31
2022-10-17T16:25:10.262Z,20.12
2022-10-17T16:27:37.505Z,20.18
2022-10-17T16:30:06.512Z,20.24
2022-10-17T16:32:33.446Z,20.16
2022-10-17T16:35:00.024Z,20.06
2022-10-17T16:37:26.883Z,20.11
2022-10-17T16:39:53.659Z,20.24
2022-10-17T16:42:21.201Z,20.12
2022-10-17T16:44:48.745Z,20.07
2022-10-17T16:47:15.606Z,20.04
2022-10-17T16:49:45.181Z,20.09
2022-10-17T16:52:12.510Z,20.07
2022-10-17T16:54:39.003Z,20.09
2022-10-17T16:57:05.686Z,20.07
2022-10-17T16:59:32.127Z,20.00
2022-10-17T17:01:58.622Z,19.78
2022-10-17T17:04:25.293Z,19.80
2022-10-17T17:06:51.829Z,19.68
2022-10-17T17:09:18.287Z,19.49
2022-10-17T17:11:44.754Z,19.39
2022-10-17T17:14:12.008Z,19.36
2022-10-17T17:16:38.469Z,19.55
2022-10-17T17:19:07.582Z,19.63
2022-10-17T17:21:35.175Z,19.47
2022-10-17T17:24:03.467Z,19.49
2022-10-17T17:26:33.418Z,19.61
2022-10-17T17:29:00.340Z,19.59
2022-10-17T17:31:29.362Z,19.59
2022-10-17T17:36:30.351Z,19.13
2022-10-17T17:38:59.096Z,19.10
2022-10-17T17:41:26.374Z,19.19
2022-10-17T17:43:53.686Z,19.22
2022-10-17T17:46:21.912Z,19.32
2022-10-17T17:48:49.942Z,19.38
2022-10-17T17:51:19.635Z,19.32
2022-10-17T17:53:46.874Z,19.25
2022-10-17T17:56:19.277Z,19.06
2022-10-17T17:58:48.195Z,19.05
2022-10-17T18:01:22.354Z,19.02
2022-10-17T18:03:50.723Z,18.88
2022-10-17T18:06:18.230Z,18.73
2022-10-17T18:08:46.668Z,18.74
2022-10-17T18:11:15.970Z,18.67
2022-10-17T18:13:44.919Z,18.58
2022-10-17T18:16:16.739Z,18.59
2022-10-17T18:18:44.978Z,18.50
2022-10-17T18:21:13.807Z,18.66
2022-10-17T18:23:42.097Z,18.57
2022-10-17T18:26:09.612Z,18.62
2022-10-17T18:28:38.103Z,18.66
2022-10-17T18:31:13.009Z,18.77
2022-10-17T18:33:39.989Z,18.90
2022-10-17T18:36:09.189Z,18.78
2022-10-17T18:38:35.940Z,18.79
2022-10-17T18:41:10.574Z,18.82
2022-10-17T18:43:38.872Z,18.71
2022-10-17T18:46:15.028Z,18.62
2022-10-17T18:48:44.301Z,18.59
2022-10-17T18:51:11.246Z,18.53
2022-10-17T18:53:46.488Z,18.28
2022-10-17T18:56:14.043Z,18.29
2022-10-17T18:58:41.200Z,18.40
2022-10-17T19:01:20.275Z,18.36
2022-10-17T19:03:48.281Z,18.41
2022-10-17T19:06:17.489Z,18.35
2022-10-17T19:08:44.694Z,18.21
2022-10-17T19:11:15.159Z,18.30
2022-10-17T19:13:42.602Z,18.23
2022-10-17T19:16:34.261Z,18.31
2022-10-17T19:19:07.236Z,18.25
2022-10-17T19:21:34.609Z,18.29
2022-10-17T19:24:03.814Z,18.18
2022-10-17T19:26:32.514Z,18.07
2022-10-17T19:29:00.390Z,18.02
2022-10-17T19:31:29.096Z,17.99
2022-10-17T19:33:56.492Z,17.97
2022-10-17T19:36:28.878Z,17.78
2022-10-17T19:38:58.814Z,17.82
2022-10-17T19:41:25.829Z,17.79
2022-10-17T19:43:52.738Z,17.79
2022-10-17T19:46:23.866Z,17.89
2022-10-17T19:48:51.091Z,17.93
2022-10-17T19:51:20.899Z,17.82
2022-10-17T19:53:47.663Z,17.86
2022-10-17T19:56:18.446Z,17.77
2022-10-17T19:58:48.956Z,17.80
2022-10-17T20:01:18.889Z,17.75
2022-10-17T20:03:46.174Z,17.76
2022-10-17T20:06:13.561Z,17.71
2022-10-17T20:08:41.058Z,17.68
2022-10-17T20:11:19.422Z,17.64
2022-10-17T20:13:46.413Z,17.66
2022-10-17T20:16:20.486Z,17.69
2022-10-17T20:18:48.647Z,17.65
2022-10-17T20:21:19.318Z,17.69
2022-10-17T20:23:47.859Z,17.72
2022-10-17T20:29:11.769Z,17.72
2022-10-17T20:31:39.689Z,17.69
2022-10-17T20:34:06.260Z,17.66
2022-10-17T20:36:36.713Z,17.60
2022-10-17T20:39:03.574Z,17.58
2022-10-17T20:41:29.999Z,17.51
2022-10-17T20:43:56.593Z,17.47
2022-10-17T20:46:36.359Z,17.44
2022-10-17T20:49:05.366Z,17.45
2022-10-17T20:51:32.021Z,17.36
2022-10-17T20:53:58.474Z,17.40
2022-10-17T20:56:29.852Z,17.34
2022-10-17T20:58:59.284Z,17.30
2022-10-17T21:01:27.142Z,17.28
2022-10-17T21:03:53.918Z,17.27
2022-10-17T21:06:21.266Z,17.30
2022-10-17T21:08:48.478Z,17.29
2022-10-17T21:11:20.845Z,17.19
2022-10-17T21:13:48.440Z,17.33
2022-10-17T21:16:17.526Z,17.29
2022-10-17T21:18:44.400Z,17.29
2022-10-17T21:21:18.288Z,17.22
2022-10-17T21:23:46.225Z,17.23
2022-10-17T21:26:13.529Z,17.26
2022-10-17T21:28:41.426Z,17.17
2022-10-17T21:31:12.116Z,17.10
2022-10-17T21:33:39.770Z,17.12
2022-10-17T21:36:07.183Z,17.12
2022-10-17T21:38:37.885Z,17.02
2022-10-17T21:41:06.171Z,17.00
2022-10-17T21:43:33.592Z,16.98
2022-10-17T21:46:04.841Z,16.90
2022-10-17T21:48:31.558Z,16.86
2022-10-17T21:51:00.019Z,16.86
2022-10-17T21:53:26.839Z,16.83
2022-10-17T21:55:53.289Z,16.77
2022-10-17T21:58:20.496Z,16.77
2022-10-17T22:00:47.117Z,16.78
2022-10-17T22:03:15.126Z,16.75
2022-10-17T22:05:41.665Z,16.77
2022-10-17T22:08:08.158Z,16.76
2022-10-17T22:10:38.497Z,16.75
2022-10-17T22:13:05.539Z,16.75
2022-10-17T22:15:31.974Z,16.76
2022-10-17T22:17:58.510Z,16.78
2022-10-17T22:20:24.933Z,16.76
2022-10-17T22:22:51.365Z,16.67
2022-10-17T22:25:17.765Z,16.74
2022-10-17T22:27:44.360Z,16.71
2022-10-17T22:30:11.158Z,16.64
2022-10-17T22:32:37.545Z,16.77
2022-10-17T22:35:04.449Z,16.78
2022-10-17T22:37:31.184Z,16.65
2022-10-17T22:39:57.784Z,16.62
2022-10-17T22:42:24.190Z,16.65
2022-10-17T22:44:50.632Z,16.71
2022-10-17T22:47:17.107Z,16.72
2022-10-17T22:49:43.502Z,16.67
2022-10-17T22:52:09.919Z,16.69
2022-10-17T22:54:36.325Z,16.78
2022-10-17T22:57:02.733Z,16.73
2022-10-17T22:59:29.142Z,16.72
2022-10-17T23:01:55.995Z,16.63
2022-10-17T23:04:22.427Z,16.67
2022-10-17T23:06:49.036Z,16.65
2022-10-17T23:09:15.539Z,16.62
2022-10-17T23:11:41.959Z,16.61
2022-10-17T23:14:08.392Z,16.64
2022-10-17T23:16:34.792Z,16.63
2022-10-17T23:19:01.236Z,16.63
2022-10-17T23:21:27.671Z,16.61
2022-10-17T23:23:54.190Z,16.61
2022-10-17T23:26:20.746Z,16.59
2022-10-17T23:28:47.207Z,16.55
2022-10-17T23:31:19.777Z,16.56
2022-10-17T23:33:48.221Z,16.51
2022-10-17T23:36:17.994Z,16.52
2022-10-17T23:38:46.148Z,16.50
2022-10-17T23:41:13.300Z,16.53
2022-10-17T23:43:40.073Z,16.46
2022-10-17T23:46:07.094Z,16.52
2022-10-17T23:48:34.034Z,16.56
2022-10-17T23:51:00.642Z,16.58
2022-10-17T23:53:27.106Z,16.67
2022-10-17T23:55:53.650Z,16.62
2022-10-17T23:58:20.086Z,16.56
